createdAt,value
2019-04-04T00:04:00.064Z,8.87
2019-04-04T00:06:40.804Z,8.87
2019-04-04T00:09:21.680Z,8.94
2019-04-04T00:11:51.135Z,8.94
2019-04-04T00:14:20.500Z,8.93
2019-04-04T00:16:50.500Z,8.86
2019-04-04T00:19:21.746Z,8.79
2019-04-04T00:21:51.662Z,8.77
2019-04-04T00:24:21.335Z,8.73
2019-04-04T00:26:50.680Z,8.73
2019-04-04T00:29:20.323Z,8.72
2019-04-04T00:31:50.293Z,8.72
2019-04-04T00:37:18.732Z,8.72
2019-04-04T00:39:48.397Z,8.73
2019-04-04T00:42:19.370Z,8.76
2019-04-04T00:44:48.736Z,8.79
2019-04-04T00:47:18.349Z,8.82
2019-04-04T00:49:47.988Z,8.83
2019-04-04T00:52:30.196Z,8.73
2019-04-04T00:54:59.570Z,8.73
2019-04-04T00:57:30.094Z,8.70
2019-04-04T00:59:59.865Z,8.65
2019-04-04T01:02:48.548Z,8.57
2019-04-04T01:05:18.497Z,8.51
2019-04-04T01:07:48.475Z,8.46
2019-04-04T01:10:19.065Z,8.44
2019-04-04T01:13:08.297Z,8.43
2019-04-04T01:15:37.654Z,8.44
2019-04-04T01:18:07.315Z,8.42
2019-04-04T01:20:36.662Z,8.39
2019-04-04T01:23:06.312Z,8.35
2019-04-04T01:25:35.661Z,8.28
2019-04-04T01:28:08.244Z,8.25
2019-04-04T01:31:02.798Z,8.22
2019-04-04T01:33:32.398Z,8.20
2019-04-04T01:36:24.916Z,8.07
2019-04-04T01:38:58.073Z,8.07
2019-04-04T01:41:37.949Z,8.00
2019-04-04T01:44:11.035Z,7.95
2019-04-04T01:46:58.002Z,7.89
2019-04-04T01:49:27.410Z,7.83
2019-04-04T01:51:57.732Z,7.80
2019-04-04T01:54:33.523Z,7.79
2019-04-04T01:57:02.875Z,7.74
2019-04-04T01:59:32.582Z,7.67
2019-04-04T02:02:02.706Z,7.63
2019-04-04T02:04:51.459Z,7.62
2019-04-04T02:07:20.825Z,7.61
2019-04-04T02:13:21.894Z,7.60
2019-04-04T02:18:54.393Z,7.59
2019-04-04T02:21:49.620Z,7.55
2019-04-04T02:24:19.044Z,7.49
2019-04-04T02:26:48.846Z,7.44
2019-04-04T02:29:18.501Z,7.41
2019-04-04T02:32:07.112Z,7.38
2019-04-04T02:34:38.532Z,7.35
2019-04-04T02:37:20.835Z,7.34
2019-04-04T02:39:55.542Z,7.32
2019-04-04T02:45:13.569Z,7.30
2019-04-04T02:47:42.917Z,7.27
2019-04-04T02:50:52.682Z,7.20
2019-04-04T02:53:22.028Z,7.16
2019-04-04T02:55:51.743Z,7.10
2019-04-04T02:58:21.376Z,7.08
2019-04-04T03:00:50.861Z,7.08
2019-04-04T03:03:20.201Z,7.10
2019-04-04T03:05:51.950Z,7.12
2019-04-04T03:08:40.567Z,7.11
2019-04-04T03:14:05.168Z,7.11
2019-04-04T03:16:34.917Z,7.09
2019-04-04T03:19:04.887Z,7.07
2019-04-04T03:21:55.936Z,7.04
2019-04-04T03:24:45.141Z,7.00
2019-04-04T03:27:25.732Z,6.93
2019-04-04T03:30:01.077Z,6.85
2019-04-04T03:32:31.049Z,6.76
2019-04-04T03:35:00.846Z,6.69
2019-04-04T03:37:30.179Z,6.65
2019-04-04T03:43:16.103Z,6.62
2019-04-04T03:46:05.079Z,6.61
2019-04-04T03:48:49.898Z,6.59
2019-04-04T03:51:17.871Z,6.55
2019-04-04T03:56:25.695Z,6.57
2019-04-04T03:59:35.071Z,6.57
2019-04-04T04:02:04.746Z,6.56
2019-04-04T04:04:34.096Z,6.55
2019-04-04T04:07:03.830Z,6.57
2019-04-04T04:09:33.209Z,6.57
2019-04-04T04:12:02.819Z,6.56
2019-04-04T04:14:33.940Z,6.55
2019-04-04T04:17:03.338Z,6.57
2019-04-04T04:19:32.829Z,6.58
2019-04-04T04:22:21.542Z,6.56
2019-04-04T04:24:50.912Z,6.56
2019-04-04T04:27:20.266Z,6.55
2019-04-04T04:29:51.535Z,6.57
2019-04-04T04:32:22.655Z,6.57
2019-04-04T04:35:11.406Z,6.56
2019-04-04T04:37:41.041Z,6.56
2019-04-04T04:40:50.725Z,6.56
2019-04-04T04:43:20.076Z,6.56
2019-04-04T04:45:51.055Z,6.57
2019-04-04T04:51:43.237Z,6.59
2019-04-04T04:54:22.843Z,6.61
2019-04-04T04:56:57.576Z,6.62
2019-04-04T04:59:26.994Z,6.62
2019-04-04T05:01:56.448Z,6.62
2019-04-04T05:04:27.972Z,6.62
2019-04-04T05:07:07.433Z,6.59
2019-04-04T05:09:44.461Z,6.58
2019-04-04T05:12:22.984Z,6.57
2019-04-04T05:14:52.674Z,6.57
2019-04-04T05:17:22.138Z,6.57
2019-04-04T05:19:52.511Z,6.57
2019-04-04T05:22:22.048Z,6.60
2019-04-04T05:25:06.826Z,6.62
2019-04-04T05:27:31.979Z,6.63
2019-04-04T05:30:01.329Z,6.64
2019-04-04T05:32:53.128Z,6.65
2019-04-04T05:35:40.256Z,6.67
2019-04-04T05:38:12.236Z,6.69
2019-04-04T05:41:00.095Z,6.71
2019-04-04T05:43:29.733Z,6.72
2019-04-04T05:45:59.276Z,6.75
2019-04-04T05:48:29.616Z,6.80
2019-04-04T05:51:19.067Z,6.81
2019-04-04T05:53:48.431Z,6.86
2019-04-04T05:56:17.996Z,6.86
2019-04-04T05:58:47.537Z,6.83
2019-04-04T06:01:36.456Z,6.80
2019-04-04T06:04:06.144Z,6.79
2019-04-04T06:06:35.472Z,6.79
2019-04-04T06:09:46.870Z,6.77
2019-04-04T06:12:22.984Z,6.67
2019-04-04T06:15:43.104Z,6.59
2019-04-04T06:18:12.469Z,6.54
2019-04-04T06:20:42.127Z,6.50
2019-04-04T06:23:11.502Z,6.49
2019-04-04T06:25:42.469Z,6.48
2019-04-04T06:28:12.690Z,6.50
2019-04-04T06:31:02.348Z,6.53
2019-04-04T06:33:33.071Z,6.56
2019-04-04T06:36:22.150Z,6.60
2019-04-04T06:38:52.226Z,6.62
2019-04-04T06:41:41.670Z,6.63
2019-04-04T06:44:13.027Z,6.67
2019-04-04T06:47:02.055Z,6.72
2019-04-04T06:49:38.200Z,6.76
2019-04-04T06:52:19.369Z,6.81
2019-04-04T06:54:48.665Z,6.86
2019-04-04T06:57:18.267Z,6.90
2019-04-04T06:59:47.622Z,6.96
2019-04-04T07:02:17.254Z,7.00
2019-04-04T07:04:47.593Z,7.04
2019-04-04T07:07:17.284Z,7.06
2019-04-04T07:09:50.354Z,7.14
2019-04-04T07:13:20.953Z,7.19
2019-04-04T07:15:46.937Z,7.27
2019-04-04T07:18:20.698Z,7.31
2019-04-04T07:20:50.242Z,7.41
2019-04-04T07:23:19.934Z,7.49
2019-04-04T07:25:49.829Z,7.55
2019-04-04T07:28:19.728Z,7.56
2019-04-04T07:30:56.522Z,7.58
2019-04-04T07:33:26.193Z,7.60
2019-04-04T07:35:55.658Z,7.61
2019-04-04T07:41:44.676Z,7.70
2019-04-04T07:44:17.269Z,7.77
2019-04-04T07:46:47.677Z,7.82
2019-04-04T07:49:18.666Z,7.85
2019-04-04T07:51:48.314Z,7.88
2019-04-04T07:54:17.683Z,7.92
2019-04-04T07:56:48.848Z,7.93
2019-04-04T07:59:18.377Z,7.97
2019-04-04T08:04:36.435Z,8.01
2019-04-04T08:07:05.790Z,7.99
2019-04-04T08:09:35.738Z,7.98
2019-04-04T08:12:05.649Z,7.96
2019-04-04T08:14:35.314Z,7.93
2019-04-04T08:17:04.767Z,7.92
2019-04-04T08:19:34.153Z,7.96
2019-04-04T08:22:03.754Z,7.99
2019-04-04T08:24:33.076Z,8.02
2019-04-04T08:27:02.725Z,8.02
2019-04-04T08:32:26.901Z,8.03
2019-04-04T08:34:56.575Z,8.04
2019-04-04T08:37:26.021Z,8.08
2019-04-04T08:39:55.691Z,8.13
2019-04-04T08:42:25.293Z,8.19
2019-04-04T08:44:54.766Z,8.25
2019-04-04T08:47:24.429Z,8.31
2019-04-04T08:49:53.805Z,8.34
2019-04-04T08:52:23.167Z,8.39
2019-04-04T08:54:52.830Z,8.42
2019-04-04T08:57:22.482Z,8.45
2019-04-04T08:59:51.852Z,8.51
2019-04-04T09:02:21.578Z,8.59
2019-04-04T09:04:51.239Z,8.62
2019-04-04T09:07:20.688Z,8.61
2019-04-04T09:09:50.133Z,8.60
2019-04-04T09:12:19.579Z,8.62
2019-04-04T09:17:44.790Z,8.72
2019-04-04T09:20:14.543Z,8.78
2019-04-04T09:22:43.893Z,8.81
2019-04-04T09:25:13.322Z,8.84
2019-04-04T09:28:02.028Z,8.82
2019-04-04T09:30:43.502Z,8.78
2019-04-04T09:33:12.863Z,8.78
2019-04-04T09:35:42.227Z,8.86
2019-04-04T09:38:25.552Z,8.92
2019-04-04T09:40:54.928Z,8.92
2019-04-04T09:43:24.606Z,8.86
2019-04-04T09:46:14.905Z,8.80
2019-04-04T09:48:44.267Z,8.71
2019-04-04T09:51:33.002Z,8.66
2019-04-04T09:54:02.359Z,8.61
2019-04-04T09:56:44.184Z,8.59
2019-04-04T09:59:13.825Z,8.58
2019-04-04T10:01:43.191Z,8.58
2019-04-04T10:04:13.958Z,8.60
2019-04-04T10:06:43.634Z,8.60
2019-04-04T10:09:33.704Z,8.57
2019-04-04T10:12:03.358Z,8.55
2019-04-04T10:14:32.839Z,8.65
2019-04-04T10:17:02.216Z,8.65
2019-04-04T10:19:31.770Z,8.72
2019-04-04T10:22:01.133Z,8.76
2019-04-04T10:24:42.776Z,8.96
2019-04-04T10:27:12.120Z,8.96
2019-04-04T10:29:41.817Z,9.07
2019-04-04T10:32:11.486Z,9.14
2019-04-04T10:34:41.282Z,9.21
2019-04-04T10:37:31.287Z,9.25
2019-04-04T10:40:00.946Z,9.33
2019-04-04T10:42:30.353Z,9.33
2019-04-04T10:45:19.323Z,9.47
2019-04-04T10:48:07.864Z,9.54
2019-04-04T10:50:37.238Z,9.54
2019-04-04T10:53:06.842Z,9.58
2019-04-04T10:55:55.581Z,9.61
2019-04-04T10:58:24.927Z,9.62
2019-04-04T11:00:54.317Z,9.70
2019-04-04T11:03:43.579Z,9.75
2019-04-04T11:06:13.010Z,9.80
2019-04-04T11:08:42.383Z,9.80
2019-04-04T11:11:11.796Z,10.15
2019-04-04T11:13:42.879Z,10.15
2019-04-04T11:16:30.306Z,10.39
2019-04-04T11:18:58.248Z,10.39
2019-04-04T11:21:27.906Z,10.53
2019-04-04T11:23:57.594Z,10.55
2019-04-04T11:26:27.036Z,10.60
2019-04-04T11:28:56.399Z,10.63
2019-04-04T11:31:25.877Z,10.64
2019-04-04T11:33:55.532Z,10.63
2019-04-04T11:36:37.867Z,10.61
2019-04-04T11:42:27.398Z,10.56
2019-04-04T11:44:57.049Z,10.53
2019-04-04T11:50:22.040Z,10.40
2019-04-04T11:52:51.398Z,10.28
2019-04-04T11:55:21.309Z,10.21
2019-04-04T11:57:50.966Z,10.16
2019-04-04T12:03:15.471Z,10.13
2019-04-04T12:05:45.069Z,10.14
2019-04-04T12:08:14.422Z,10.14
2019-04-04T12:10:44.080Z,10.14
2019-04-04T12:13:13.450Z,10.14
2019-04-04T12:18:45.435Z,10.06
2019-04-04T12:21:15.460Z,10.06
2019-04-04T12:23:45.000Z,9.98
2019-04-04T12:26:14.399Z,9.98
2019-04-04T12:28:45.368Z,10.00
2019-04-04T12:31:15.022Z,9.92
2019-04-04T12:33:44.379Z,9.87
2019-04-04T12:36:24.049Z,9.86
2019-04-04T12:38:50.596Z,9.83
2019-04-04T12:42:00.203Z,9.77
2019-04-04T12:44:49.131Z,9.70
2019-04-04T12:47:18.827Z,9.68
2019-04-04T12:49:50.405Z,9.70
2019-04-04T12:52:19.774Z,9.66
2019-04-04T12:54:49.377Z,9.66
2019-04-04T12:57:19.046Z,9.68
2019-04-04T13:00:01.910Z,9.67
2019-04-04T13:02:31.274Z,9.67
2019-04-04T13:05:01.206Z,9.69
2019-04-04T13:07:30.574Z,9.68
2019-04-04T13:10:10.897Z,9.69
2019-04-04T13:15:38.316Z,9.76
2019-04-04T13:18:09.307Z,9.76
2019-04-04T13:20:38.648Z,9.74
2019-04-04T13:23:08.278Z,9.75
2019-04-04T13:25:37.943Z,9.77
2019-04-04T13:28:07.656Z,9.80
2019-04-04T13:30:49.521Z,9.90
2019-04-04T13:33:31.472Z,9.97
2019-04-04T13:36:01.419Z,9.97
2019-04-04T13:38:30.797Z,9.98
2019-04-04T13:41:00.490Z,9.91
2019-04-04T13:43:29.855Z,9.88
2019-04-04T13:45:59.507Z,9.87
2019-04-04T13:48:29.175Z,9.85
2019-04-04T13:51:00.902Z,9.85
2019-04-04T13:53:30.485Z,9.81
2019-04-04T13:56:00.198Z,9.78
2019-04-04T13:58:29.895Z,9.77
2019-04-04T14:00:59.550Z,9.76
2019-04-04T14:03:29.216Z,9.71
2019-04-04T14:05:58.565Z,9.67
2019-04-04T14:08:27.935Z,9.70
2019-04-04T14:10:58.611Z,9.73
2019-04-04T14:13:28.334Z,9.75
2019-04-04T14:15:57.776Z,9.74
2019-04-04T14:18:38.988Z,9.72
2019-04-04T14:21:17.557Z,9.72
2019-04-04T14:26:46.400Z,9.72
2019-04-04T14:29:27.811Z,9.72
2019-04-04T14:31:58.903Z,9.74
2019-04-04T14:34:28.351Z,9.58
2019-04-04T14:36:57.830Z,9.58
2019-04-04T14:39:27.361Z,9.49
2019-04-04T14:41:56.749Z,9.39
2019-04-04T14:44:28.028Z,9.26
2019-04-04T14:47:07.349Z,9.17
2019-04-04T14:49:36.711Z,9.07
2019-04-04T14:52:06.403Z,9.02
2019-04-04T14:54:46.706Z,8.95
2019-04-04T14:57:35.739Z,8.92
2019-04-04T15:03:07.689Z,8.94
2019-04-04T15:05:37.050Z,8.97
2019-04-04T15:08:06.966Z,9.00
2019-04-04T15:10:38.880Z,9.05
2019-04-04T15:13:12.765Z,9.10
2019-04-04T15:19:16.536Z,9.21
2019-04-04T15:21:45.898Z,9.21
2019-04-04T15:24:15.573Z,9.32
2019-04-04T15:26:45.183Z,9.37
2019-04-04T15:29:14.556Z,9.38
2019-04-04T15:31:43.913Z,9.38
2019-04-04T15:34:13.522Z,9.33
2019-04-04T15:36:42.878Z,9.27
2019-04-04T15:39:12.555Z,9.23
2019-04-04T15:41:41.909Z,9.22
2019-04-04T15:44:11.576Z,9.20
2019-04-04T15:46:40.937Z,9.18
2019-04-04T15:49:10.620Z,9.18
2019-04-04T15:51:39.976Z,9.16
2019-04-04T15:54:09.934Z,9.16
2019-04-04T15:56:39.582Z,9.16
2019-04-04T15:59:08.953Z,9.15
2019-04-04T16:01:38.638Z,9.11
2019-04-04T16:04:08.008Z,9.10
2019-04-04T16:06:37.674Z,9.05
2019-04-04T16:09:47.076Z,9.00
2019-04-04T16:12:36.033Z,8.85
2019-04-04T16:15:45.770Z,8.85
2019-04-04T16:18:15.120Z,8.76
2019-04-04T16:20:44.751Z,8.66
2019-04-04T16:23:14.097Z,8.61
2019-04-04T16:25:43.720Z,8.65
2019-04-04T16:28:13.083Z,8.65
2019-04-04T16:30:42.745Z,8.68
2019-04-04T16:33:12.103Z,8.70
2019-04-04T16:35:54.334Z,8.64
2019-04-04T16:38:23.749Z,8.64
2019-04-04T16:40:53.152Z,8.65
2019-04-04T16:43:35.664Z,8.54
2019-04-04T16:46:05.068Z,8.54
2019-04-04T16:48:54.127Z,8.53
2019-04-04T16:51:23.827Z,8.53
2019-04-04T16:53:53.202Z,8.52
2019-04-04T16:57:02.753Z,8.51
2019-04-04T16:59:32.127Z,8.52
2019-04-04T17:02:02.049Z,8.54
2019-04-04T17:04:31.762Z,8.53
2019-04-04T17:07:01.126Z,8.54
2019-04-04T17:09:30.780Z,8.53
2019-04-04T17:12:00.446Z,8.50
2019-04-04T17:14:48.991Z,8.50
2019-04-04T17:17:18.593Z,8.50
2019-04-04T17:19:49.147Z,8.52
2019-04-04T17:25:33.788Z,8.49
2019-04-04T17:28:03.295Z,8.50
2019-04-04T17:30:33.565Z,8.50
2019-04-04T17:33:23.293Z,8.49
2019-04-04T17:35:53.059Z,8.46
2019-04-04T17:38:22.700Z,8.45
2019-04-04T17:40:52.376Z,8.42
2019-04-04T17:43:22.083Z,8.41
2019-04-04T17:45:51.650Z,8.40
2019-04-04T17:48:21.019Z,8.40
2019-04-04T17:50:50.683Z,8.42
2019-04-04T17:53:20.283Z,8.42
2019-04-04T17:55:51.948Z,8.41
2019-04-04T17:58:41.437Z,8.37
2019-04-04T18:07:35.396Z,8.19
2019-04-04T18:13:07.032Z,8.10
2019-04-04T18:18:17.339Z,8.14
2019-04-04T18:20:46.970Z,8.19
2019-04-04T18:23:16.324Z,8.20
2019-04-04T18:25:47.405Z,8.25
2019-04-04T18:28:38.178Z,8.27
2019-04-04T18:31:32.359Z,8.25
2019-04-04T18:34:02.305Z,8.24
2019-04-04T18:36:33.660Z,8.20
2019-04-04T18:39:23.440Z,8.19
2019-04-04T18:41:53.101Z,8.21
2019-04-04T18:44:43.644Z,8.23
2019-04-04T18:47:34.080Z,8.25
2019-04-04T18:50:44.157Z,8.28
2019-04-04T18:53:13.813Z,8.27
2019-04-04T18:55:43.220Z,8.25
2019-04-04T18:58:12.572Z,8.18
2019-04-04T19:03:37.910Z,8.10
2019-04-04T19:06:07.281Z,8.11
2019-04-04T19:08:36.641Z,8.13
2019-04-04T19:11:06.439Z,8.11
2019-04-04T19:13:44.049Z,8.12
2019-04-04T19:16:13.471Z,8.13
2019-04-04T19:21:57.025Z,8.16
2019-04-04T19:24:26.372Z,8.18
2019-04-04T19:27:07.936Z,8.24
2019-04-04T19:29:49.041Z,8.24
2019-04-04T19:32:18.413Z,8.26
2019-04-04T19:34:49.407Z,8.25
2019-04-04T19:37:19.092Z,8.23
2019-04-04T19:39:57.305Z,8.20
2019-04-04T19:42:26.631Z,8.14
2019-04-04T19:44:56.282Z,8.06
2019-04-04T19:47:25.653Z,8.04
2019-04-04T19:49:55.370Z,8.07
2019-04-04T19:52:25.031Z,8.13
2019-04-04T19:54:55.024Z,8.18
2019-04-04T19:57:24.417Z,8.20
2019-04-04T19:59:54.053Z,8.23
2019-04-04T20:02:23.421Z,8.26
2019-04-04T20:04:53.096Z,8.26
2019-04-04T20:07:22.468Z,8.30
2019-04-04T20:09:51.815Z,8.30
2019-04-04T20:12:21.421Z,8.27
2019-04-04T20:14:51.091Z,8.27
2019-04-04T20:17:20.481Z,8.27
2019-04-04T20:19:50.133Z,8.29
2019-04-04T20:22:19.505Z,8.27
2019-04-04T20:24:50.773Z,8.21
2019-04-04T20:27:20.351Z,8.18
2019-04-04T20:29:49.706Z,8.12
2019-04-04T20:32:32.092Z,8.07
2019-04-04T20:35:01.739Z,8.07
2019-04-04T20:40:25.711Z,8.05
2019-04-04T20:43:14.746Z,8.03
2019-04-04T20:45:44.290Z,7.97
2019-04-04T20:48:33.030Z,8.01
2019-04-04T20:51:02.493Z,8.07
2019-04-04T20:53:32.168Z,8.11
2019-04-04T20:56:01.830Z,8.16
2019-04-04T20:58:31.740Z,8.18
2019-04-04T21:01:01.373Z,8.21
2019-04-04T21:03:30.876Z,8.21
2019-04-04T21:12:07.051Z,8.17
2019-04-04T21:14:49.349Z,8.16
2019-04-04T21:17:19.632Z,8.16
2019-04-04T21:20:09.089Z,8.14
2019-04-04T21:22:38.513Z,8.07
2019-04-04T21:25:08.282Z,8.00
2019-04-04T21:27:37.650Z,7.98
2019-04-04T21:33:41.440Z,8.07
2019-04-04T21:39:12.665Z,8.06
2019-04-04T21:41:42.016Z,8.00
2019-04-04T21:44:23.584Z,7.86
2019-04-04T21:46:52.952Z,7.86
2019-04-04T21:49:22.352Z,7.84
2019-04-04T21:51:51.735Z,7.80
2019-04-04T21:57:30.495Z,7.79
2019-04-04T22:00:19.569Z,7.74
2019-04-04T22:02:50.675Z,7.72
2019-04-04T22:05:19.994Z,7.71
2019-04-04T22:07:49.852Z,7.67
2019-04-04T22:10:32.088Z,7.70
2019-04-04T22:13:13.829Z,7.70
2019-04-04T22:16:23.480Z,7.72
2019-04-04T22:18:53.161Z,7.73
2019-04-04T22:21:22.824Z,7.72
2019-04-04T22:24:11.852Z,7.74
2019-04-04T22:26:41.499Z,7.74
2019-04-04T22:29:11.201Z,7.75
2019-04-04T22:31:40.921Z,7.74
2019-04-04T22:34:10.450Z,7.77
2019-04-04T22:39:28.492Z,7.77
2019-04-04T22:41:57.854Z,7.76
2019-04-04T22:44:34.610Z,7.71
2019-04-04T22:47:17.710Z,7.76
2019-04-04T22:49:47.399Z,7.80
2019-04-04T22:52:16.981Z,7.84
2019-04-04T22:54:47.414Z,7.89
2019-04-04T22:57:16.786Z,7.89
2019-04-04T22:59:46.168Z,7.87
2019-04-04T23:02:17.438Z,7.86
2019-04-04T23:04:46.819Z,7.88
2019-04-04T23:10:24.821Z,7.84
2019-04-04T23:12:54.199Z,7.73
2019-04-04T23:15:24.034Z,7.69
2019-04-04T23:17:54.079Z,7.70
2019-04-04T23:23:11.967Z,7.77
2019-04-04T23:26:01.011Z,7.75
2019-04-04T23:28:43.562Z,7.72
2019-04-04T23:31:13.194Z,7.72
2019-04-04T23:34:02.489Z,7.72
2019-04-04T23:36:35.210Z,7.72
2019-04-04T23:39:14.218Z,7.73
2019-04-04T23:41:43.714Z,7.69
2019-04-04T23:44:13.104Z,7.69
2019-04-04T23:47:02.292Z,7.67
2019-04-04T23:49:31.730Z,7.67
2019-04-04T23:52:01.401Z,7.68
2019-04-04T23:54:30.854Z,7.62
2019-04-04T23:57:19.586Z,7.62
